createdAt,value
2022-09-24T00:00:00.704Z,1007.97
2022-09-24T00:01:00.700Z,1007.93
2022-09-24T00:02:00.715Z,1007.91
2022-09-24T00:03:00.708Z,1007.90
2022-09-24T00:04:00.835Z,1007.87
2022-09-24T00:05:00.633Z,1007.87
2022-09-24T00:06:00.659Z,1007.90
2022-09-24T00:07:00.618Z,1007.86
2022-09-24T00:08:00.600Z,1007.88
2022-09-24T00:09:00.596Z,1007.84
2022-09-24T00:10:00.592Z,1007.82
2022-09-24T00:11:00.572Z,1007.78
2022-09-24T00:12:00.600Z,1007.82
2022-09-24T00:13:00.548Z,1007.77
2022-09-24T00:14:00.718Z,1007.78
2022-09-24T00:15:00.524Z,1007.76
2022-09-24T00:16:00.518Z,1007.76
2022-09-24T00:17:00.537Z,1007.75
2022-09-24T00:18:00.486Z,1007.75
2022-09-24T00:19:00.486Z,1007.74
2022-09-24T00:20:00.471Z,1007.75
2022-09-24T00:21:00.458Z,1007.73
2022-09-24T00:22:00.450Z,1007.77
2022-09-24T00:23:00.461Z,1007.76
2022-09-24T00:24:00.432Z,1007.76
2022-09-24T00:25:00.406Z,1007.74
2022-09-24T00:26:00.402Z,1007.73
2022-09-24T00:27:00.396Z,1007.72
2022-09-24T00:28:00.374Z,1007.78
2022-09-24T00:29:00.385Z,1007.71
2022-09-24T00:30:00.354Z,1007.72
2022-09-24T00:31:00.432Z,1007.75
2022-09-24T00:32:00.329Z,1007.74
2022-09-24T00:33:00.340Z,1007.70
2022-09-24T00:34:00.426Z,1007.73
2022-09-24T00:35:00.303Z,1007.70
2022-09-24T00:36:00.291Z,1007.71
2022-09-24T00:37:00.271Z,1007.69
2022-09-24T00:38:00.267Z,1007.65
2022-09-24T00:39:00.262Z,1007.68
2022-09-24T00:40:00.266Z,1007.66
2022-09-24T00:41:00.228Z,1007.68
2022-09-24T00:42:00.219Z,1007.65
2022-09-24T00:43:00.203Z,1007.69
2022-09-24T00:44:00.209Z,1007.72
2022-09-24T00:45:00.194Z,1007.74
2022-09-24T00:46:00.196Z,1007.73
2022-09-24T00:47:00.260Z,1007.81
2022-09-24T00:48:00.147Z,1007.77
2022-09-24T00:49:00.154Z,1007.75
2022-09-24T00:50:00.132Z,1007.71
2022-09-24T00:51:00.119Z,1007.72
2022-09-24T00:52:00.138Z,1007.75
2022-09-24T00:53:00.090Z,1007.73
2022-09-24T00:54:00.089Z,1007.69
2022-09-24T00:55:00.074Z,1007.71
2022-09-24T00:56:00.087Z,1007.70
2022-09-24T00:57:00.048Z,1007.71
2022-09-24T00:58:00.056Z,1007.71
2022-09-24T00:59:00.034Z,1007.67
2022-09-24T01:00:00.015Z,1007.71
2022-09-24T01:01:00.068Z,1007.68
2022-09-24T01:02:00.033Z,1007.64
2022-09-24T01:02:59.980Z,1007.64
2022-09-24T01:03:59.992Z,1007.60
2022-09-24T01:04:59.987Z,1007.65
2022-09-24T01:05:59.952Z,1007.60
2022-09-24T01:06:59.945Z,1007.63
2022-09-24T01:07:59.933Z,1007.59
2022-09-24T01:08:59.933Z,1007.60
2022-09-24T01:09:59.908Z,1007.59
2022-09-24T01:10:59.895Z,1007.58
2022-09-24T01:11:59.885Z,1007.54
2022-09-24T01:12:59.875Z,1007.55
2022-09-24T01:13:59.862Z,1007.58
2022-09-24T01:14:59.865Z,1007.54
2022-09-24T01:15:59.871Z,1007.52
2022-09-24T01:16:59.820Z,1007.50
2022-09-24T01:17:59.815Z,1007.53
2022-09-24T01:18:59.797Z,1007.49
2022-09-24T01:19:59.795Z,1007.47
2022-09-24T01:20:59.866Z,1007.44
2022-09-24T01:21:59.764Z,1007.46
2022-09-24T01:22:59.760Z,1007.40
2022-09-24T01:23:59.750Z,1007.38
2022-09-24T01:24:59.733Z,1007.42
2022-09-24T01:25:59.720Z,1007.42
2022-09-24T01:26:59.721Z,1007.41
2022-09-24T01:27:59.701Z,1007.41
2022-09-24T01:28:59.685Z,1007.41
2022-09-24T01:29:59.672Z,1007.40
2022-09-24T01:30:59.800Z,1007.36
2022-09-24T01:31:59.680Z,1007.36
2022-09-24T01:32:59.641Z,1007.35
2022-09-24T01:33:59.653Z,1007.32
2022-09-24T01:34:59.623Z,1007.29
2022-09-24T01:35:59.613Z,1007.30
2022-09-24T01:36:59.621Z,1007.28
2022-09-24T01:37:59.594Z,1007.31
2022-09-24T01:38:59.582Z,1007.32
2022-09-24T01:39:59.568Z,1007.32
2022-09-24T01:40:59.549Z,1007.29
2022-09-24T01:41:59.543Z,1007.32
2022-09-24T01:42:59.560Z,1007.27
2022-09-24T01:43:59.524Z,1007.27
2022-09-24T01:44:59.510Z,1007.24
2022-09-24T01:45:59.504Z,1007.24
2022-09-24T01:46:59.537Z,1007.22
2022-09-24T01:47:59.470Z,1007.23
2022-09-24T01:48:59.488Z,1007.23
2022-09-24T01:49:59.447Z,1007.28
2022-09-24T01:50:59.444Z,1007.31
2022-09-24T01:51:59.425Z,1007.33
2022-09-24T01:52:59.443Z,1007.30
2022-09-24T01:53:59.410Z,1007.30
2022-09-24T01:54:59.415Z,1007.31
2022-09-24T01:55:59.380Z,1007.32
2022-09-24T01:56:59.376Z,1007.36
2022-09-24T01:57:59.364Z,1007.33
2022-09-24T01:58:59.349Z,1007.31
2022-09-24T01:59:59.351Z,1007.29
2022-09-24T02:00:59.431Z,1007.28
2022-09-24T02:01:59.404Z,1007.28
2022-09-24T02:02:59.312Z,1007.27
2022-09-24T02:03:59.299Z,1007.26
2022-09-24T02:04:59.302Z,1007.26
2022-09-24T02:05:59.268Z,1007.27
2022-09-24T02:06:59.258Z,1007.27
2022-09-24T02:07:59.253Z,1007.27
2022-09-24T02:08:59.261Z,1007.23
2022-09-24T02:09:59.254Z,1007.26
2022-09-24T02:10:59.220Z,1007.28
2022-09-24T02:11:59.198Z,1007.25
2022-09-24T02:12:59.197Z,1007.24
2022-09-24T02:13:59.209Z,1007.24
2022-09-24T02:14:59.180Z,1007.21
2022-09-24T02:15:59.207Z,1007.22
2022-09-24T02:16:59.145Z,1007.19
2022-09-24T02:17:59.131Z,1007.18
2022-09-24T02:18:59.129Z,1007.16
2022-09-24T02:19:59.115Z,1007.14
2022-09-24T02:20:59.115Z,1007.10
2022-09-24T02:21:59.087Z,1007.12
2022-09-24T02:22:59.077Z,1007.07
2022-09-24T02:23:59.063Z,1007.07
2022-09-24T02:24:59.085Z,1007.05
2022-09-24T02:25:59.043Z,1007.02
2022-09-24T02:26:59.042Z,1007.02
2022-09-24T02:27:59.030Z,1007.00
2022-09-24T02:28:59.016Z,1006.99
2022-09-24T02:29:59.000Z,1007.00
2022-09-24T02:30:59.082Z,1006.98
2022-09-24T02:31:59.007Z,1006.99
2022-09-24T02:32:58.964Z,1007.01
2022-09-24T02:33:58.961Z,1006.93
2022-09-24T02:34:58.940Z,1007.00
2022-09-24T02:35:58.936Z,1006.99
2022-09-24T02:36:58.920Z,1006.97
2022-09-24T02:38:02.767Z,1006.96
2022-09-24T02:38:59.895Z,1007.02
2022-09-24T02:39:58.885Z,1007.00
2022-09-24T02:40:58.900Z,1006.98
2022-09-24T02:41:58.860Z,1006.99
2022-09-24T02:42:58.873Z,1006.98
2022-09-24T02:43:58.840Z,1006.98
2022-09-24T02:44:58.833Z,1006.96
2022-09-24T02:45:58.830Z,1006.96
2022-09-24T02:46:58.937Z,1006.95
2022-09-24T02:47:58.820Z,1006.93
2022-09-24T02:48:58.789Z,1006.91
2022-09-24T02:49:58.772Z,1006.92
2022-09-24T02:50:58.760Z,1006.90
2022-09-24T02:51:58.747Z,1006.90
2022-09-24T02:52:58.739Z,1006.87
2022-09-24T02:53:58.746Z,1006.88
2022-09-24T02:54:58.724Z,1006.91
2022-09-24T02:55:58.715Z,1006.83
2022-09-24T02:56:58.716Z,1006.82
2022-09-24T02:57:58.684Z,1006.83
2022-09-24T02:58:58.689Z,1006.82
2022-09-24T02:59:58.658Z,1006.81
2022-09-24T03:00:58.653Z,1006.80
2022-09-24T03:01:58.777Z,1006.83
2022-09-24T03:02:58.710Z,1006.76
2022-09-24T03:03:58.629Z,1006.81
2022-09-24T03:04:58.604Z,1006.81
2022-09-24T03:05:58.598Z,1006.83
2022-09-24T03:06:58.599Z,1006.83
2022-09-24T03:07:58.575Z,1006.81
2022-09-24T03:08:58.582Z,1006.82
2022-09-24T03:09:58.567Z,1006.82
2022-09-24T03:10:58.543Z,1006.82
2022-09-24T03:11:58.528Z,1006.82
2022-09-24T03:12:58.619Z,1006.83
2022-09-24T03:13:58.513Z,1006.82
2022-09-24T03:14:58.507Z,1006.86
2022-09-24T03:15:58.551Z,1006.85
2022-09-24T03:16:58.466Z,1006.85
2022-09-24T03:17:58.456Z,1006.84
2022-09-24T03:18:58.444Z,1006.85
2022-09-24T03:19:58.435Z,1006.85
2022-09-24T03:20:58.435Z,1006.85
2022-09-24T03:21:58.412Z,1006.84
2022-09-24T03:22:58.406Z,1006.85
2022-09-24T03:23:58.393Z,1006.86
2022-09-24T03:24:58.385Z,1006.88
2022-09-24T03:25:58.937Z,1006.87
2022-09-24T03:26:58.356Z,1006.90
2022-09-24T03:27:58.353Z,1006.89
2022-09-24T03:28:58.436Z,1006.90
2022-09-24T03:29:58.321Z,1006.89
2022-09-24T03:30:58.354Z,1006.87
2022-09-24T03:31:58.333Z,1006.87
2022-09-24T03:32:58.303Z,1006.88
2022-09-24T03:33:58.289Z,1006.86
2022-09-24T03:34:58.264Z,1006.86
2022-09-24T03:35:58.259Z,1006.85
2022-09-24T03:36:58.255Z,1006.83
2022-09-24T03:37:58.238Z,1006.81
2022-09-24T03:38:58.223Z,1006.85
2022-09-24T03:39:58.215Z,1006.79
2022-09-24T03:40:58.335Z,1006.76
2022-09-24T03:41:58.198Z,1006.78
2022-09-24T03:42:58.174Z,1006.79
2022-09-24T03:43:58.163Z,1006.77
2022-09-24T03:44:58.184Z,1006.78
2022-09-24T03:45:58.140Z,1006.76
2022-09-24T03:46:58.144Z,1006.76
2022-09-24T03:47:58.116Z,1006.76
2022-09-24T03:48:58.105Z,1006.75
2022-09-24T03:49:58.098Z,1006.76
2022-09-24T03:50:58.092Z,1006.78
2022-09-24T03:51:58.100Z,1006.75
2022-09-24T03:52:58.072Z,1006.75
2022-09-24T03:53:58.053Z,1006.74
2022-09-24T03:54:58.040Z,1006.74
2022-09-24T03:55:58.027Z,1006.70
2022-09-24T03:56:58.018Z,1006.68
2022-09-24T03:57:58.019Z,1006.69
2022-09-24T03:58:57.997Z,1006.70
2022-09-24T03:59:57.984Z,1006.72
2022-09-24T04:00:58.000Z,1006.69
2022-09-24T04:01:58.054Z,1006.69
2022-09-24T04:02:58.027Z,1006.71
2022-09-24T04:03:57.948Z,1006.66
2022-09-24T04:04:57.928Z,1006.66
2022-09-24T04:05:57.925Z,1006.63
2022-09-24T04:06:57.904Z,1006.59
2022-09-24T04:07:57.914Z,1006.57
2022-09-24T04:08:57.911Z,1006.58
2022-09-24T04:09:58.406Z,1006.57
2022-09-24T04:10:57.867Z,1006.55
2022-09-24T04:11:57.853Z,1006.54
2022-09-24T04:12:57.838Z,1006.52
2022-09-24T04:13:57.845Z,1006.50
2022-09-24T04:14:57.824Z,1006.48
2022-09-24T04:15:57.859Z,1006.48
2022-09-24T04:16:57.822Z,1006.48
2022-09-24T04:17:57.783Z,1006.46
2022-09-24T04:18:57.804Z,1006.46
2022-09-24T04:19:57.759Z,1006.50
2022-09-24T04:20:57.747Z,1006.46
2022-09-24T04:21:57.732Z,1006.45
2022-09-24T04:22:57.723Z,1006.47
2022-09-24T04:23:57.718Z,1006.47
2022-09-24T04:24:57.725Z,1006.44
2022-09-24T04:25:57.691Z,1006.43
2022-09-24T04:26:57.680Z,1006.42
2022-09-24T04:27:57.668Z,1006.41
2022-09-24T04:28:57.666Z,1006.40
2022-09-24T04:29:57.667Z,1006.41
2022-09-24T04:30:57.765Z,1006.36
2022-09-24T04:31:57.623Z,1006.37
2022-09-24T04:32:57.646Z,1006.37
2022-09-24T04:33:57.601Z,1006.38
2022-09-24T04:34:57.609Z,1006.38
2022-09-24T04:35:57.582Z,1006.42
2022-09-24T04:36:57.576Z,1006.47
2022-09-24T04:37:57.575Z,1006.47
2022-09-24T04:38:57.549Z,1006.49
2022-09-24T04:39:57.561Z,1006.48
2022-09-24T04:40:57.618Z,1006.48
2022-09-24T04:41:57.538Z,1006.50
2022-09-24T04:42:57.500Z,1006.48
2022-09-24T04:43:57.492Z,1006.44
2022-09-24T04:44:57.479Z,1006.43
2022-09-24T04:45:57.518Z,1006.43
2022-09-24T04:46:57.581Z,1006.42
2022-09-24T04:47:57.620Z,1006.42
2022-09-24T04:48:57.462Z,1006.39
2022-09-24T04:49:57.428Z,1006.43
2022-09-24T04:50:57.423Z,1006.41
2022-09-24T04:51:57.399Z,1006.40
2022-09-24T04:52:57.399Z,1006.36
2022-09-24T04:53:57.376Z,1006.39
2022-09-24T04:54:57.372Z,1006.40
2022-09-24T04:55:57.377Z,1006.39
2022-09-24T04:56:57.353Z,1006.37
2022-09-24T04:57:57.338Z,1006.33
2022-09-24T04:58:57.323Z,1006.38
2022-09-24T04:59:57.318Z,1006.38
2022-09-24T05:00:57.306Z,1006.40
2022-09-24T05:01:57.434Z,1006.42
2022-09-24T05:02:57.389Z,1006.40
2022-09-24T05:03:57.271Z,1006.44
2022-09-24T05:04:57.277Z,1006.44
2022-09-24T05:05:57.248Z,1006.42
2022-09-24T05:06:57.253Z,1006.43
2022-09-24T05:07:57.235Z,1006.45
2022-09-24T05:08:57.217Z,1006.45
2022-09-24T05:09:57.196Z,1006.45
2022-09-24T05:10:57.194Z,1006.46
2022-09-24T05:11:57.195Z,1006.42
2022-09-24T05:12:57.169Z,1006.45
2022-09-24T05:13:57.152Z,1006.50
2022-09-24T05:14:57.144Z,1006.48
2022-09-24T05:15:57.180Z,1006.49
2022-09-24T05:16:57.145Z,1006.48
2022-09-24T05:17:57.116Z,1006.49
2022-09-24T05:18:57.103Z,1006.46
2022-09-24T05:19:57.095Z,1006.45
2022-09-24T05:20:57.095Z,1006.43
2022-09-24T05:21:57.065Z,1006.46
2022-09-24T05:22:57.089Z,1006.40
2022-09-24T05:23:57.050Z,1006.46
2022-09-24T05:24:57.041Z,1006.38
2022-09-24T05:25:57.038Z,1006.40
2022-09-24T05:26:57.006Z,1006.39
2022-09-24T05:27:57.012Z,1006.40
2022-09-24T05:28:56.992Z,1006.42
2022-09-24T05:29:56.985Z,1006.40
2022-09-24T05:30:57.041Z,1006.40
2022-09-24T05:31:56.961Z,1006.39
2022-09-24T05:32:56.968Z,1006.38
2022-09-24T05:33:56.936Z,1006.41
2022-09-24T05:34:56.923Z,1006.39
2022-09-24T05:35:56.913Z,1006.40
2022-09-24T05:36:56.916Z,1006.44
2022-09-24T05:37:56.892Z,1006.43
2022-09-24T05:38:56.885Z,1006.44
2022-09-24T05:39:56.863Z,1006.49
2022-09-24T05:40:57.018Z,1006.47
2022-09-24T05:41:56.841Z,1006.47
2022-09-24T05:42:56.831Z,1006.50
2022-09-24T05:43:56.839Z,1006.53
2022-09-24T05:44:56.812Z,1006.54
2022-09-24T05:45:56.801Z,1006.48
2022-09-24T05:46:56.882Z,1006.52
2022-09-24T05:47:56.780Z,1006.54
2022-09-24T05:48:56.785Z,1006.56
2022-09-24T05:49:56.751Z,1006.55
2022-09-24T05:50:56.744Z,1006.56
2022-09-24T05:51:56.726Z,1006.55
2022-09-24T05:52:56.834Z,1006.54
2022-09-24T05:53:56.743Z,1006.50
2022-09-24T05:54:56.698Z,1006.52
2022-09-24T05:55:56.683Z,1006.51
2022-09-24T05:56:56.677Z,1006.52
2022-09-24T05:57:56.672Z,1006.55
2022-09-24T05:58:56.663Z,1006.54
2022-09-24T05:59:56.648Z,1006.54
2022-09-24T06:00:56.626Z,1006.53
2022-09-24T06:01:56.659Z,1006.51
2022-09-24T06:02:56.690Z,1006.55
2022-09-24T06:03:56.593Z,1006.57
2022-09-24T06:04:56.631Z,1006.54
2022-09-24T06:05:56.569Z,1006.53
2022-09-24T06:06:56.563Z,1006.58
2022-09-24T06:07:56.553Z,1006.58
2022-09-24T06:08:56.640Z,1006.60
2022-09-24T06:09:56.551Z,1006.59
2022-09-24T06:10:56.522Z,1006.61
2022-09-24T06:11:56.504Z,1006.58
2022-09-24T06:12:56.490Z,1006.61
2022-09-24T06:13:56.485Z,1006.61
2022-09-24T06:14:56.480Z,1006.62
2022-09-24T06:15:56.564Z,1006.64
2022-09-24T06:16:56.456Z,1006.59
2022-09-24T06:17:56.437Z,1006.61
2022-09-24T06:18:56.423Z,1006.62
2022-09-24T06:19:56.421Z,1006.62
2022-09-24T06:20:56.422Z,1006.62
2022-09-24T06:21:56.397Z,1006.59
2022-09-24T06:22:56.385Z,1006.59
2022-09-24T06:23:56.374Z,1006.62
2022-09-24T06:24:56.475Z,1006.56
2022-09-24T06:25:56.362Z,1006.56
2022-09-24T06:26:56.341Z,1006.56
2022-09-24T06:27:56.321Z,1006.57
2022-09-24T06:29:00.759Z,1006.57
2022-09-24T06:29:57.302Z,1006.58
2022-09-24T06:30:56.332Z,1006.60
2022-09-24T06:31:56.285Z,1006.57
2022-09-24T06:32:56.268Z,1006.61
2022-09-24T06:33:56.254Z,1006.66
2022-09-24T06:34:59.135Z,1006.62
2022-09-24T06:35:56.247Z,1006.67
2022-09-24T06:36:56.229Z,1006.69
2022-09-24T06:37:56.220Z,1006.70
2022-09-24T06:38:56.215Z,1006.73
2022-09-24T06:39:56.295Z,1006.73
2022-09-24T06:40:56.267Z,1006.75
2022-09-24T06:41:56.164Z,1006.77
2022-09-24T06:42:56.165Z,1006.79
2022-09-24T06:43:56.173Z,1006.82
2022-09-24T06:44:56.135Z,1006.83
2022-09-24T06:45:56.121Z,1006.84
2022-09-24T06:46:56.178Z,1006.84
2022-09-24T06:47:56.114Z,1006.83
2022-09-24T06:48:56.094Z,1006.80
2022-09-24T06:49:56.076Z,1006.76
2022-09-24T06:50:56.075Z,1006.77
2022-09-24T06:51:56.073Z,1006.74
2022-09-24T06:52:56.050Z,1006.80
2022-09-24T06:53:56.036Z,1006.82
2022-09-24T06:54:56.020Z,1006.82
2022-09-24T06:55:56.018Z,1006.85
2022-09-24T06:56:56.018Z,1006.84
2022-09-24T06:57:56.008Z,1006.89
2022-09-24T06:58:55.973Z,1006.93
2022-09-24T06:59:55.968Z,1006.92
2022-09-24T07:00:55.996Z,1006.96
2022-09-24T07:01:55.980Z,1006.97
2022-09-24T07:02:55.961Z,1006.95
2022-09-24T07:03:55.918Z,1006.99
2022-09-24T07:04:55.907Z,1007.00
2022-09-24T07:05:55.906Z,1006.97
2022-09-24T07:06:55.892Z,1006.92
2022-09-24T07:07:55.893Z,1006.96
2022-09-24T07:08:55.863Z,1006.94
2022-09-24T07:09:55.858Z,1006.94
2022-09-24T07:10:55.843Z,1006.95
2022-09-24T07:11:55.836Z,1006.94
2022-09-24T07:12:55.857Z,1006.92
2022-09-24T07:13:55.816Z,1006.91
2022-09-24T07:14:55.793Z,1006.92
2022-09-24T07:15:55.845Z,1006.92
2022-09-24T07:16:55.773Z,1006.91
2022-09-24T07:17:55.769Z,1006.91
2022-09-24T07:18:55.771Z,1006.90
2022-09-24T07:19:55.740Z,1006.92
2022-09-24T07:20:55.736Z,1006.91
2022-09-24T07:21:55.715Z,1006.89
2022-09-24T07:22:55.704Z,1006.92
2022-09-24T07:23:58.602Z,1006.91
2022-09-24T07:24:55.689Z,1006.97
2022-09-24T07:25:55.677Z,1006.98
2022-09-24T07:26:55.660Z,1006.96
2022-09-24T07:27:55.652Z,1006.94
2022-09-24T07:28:55.692Z,1006.95
2022-09-24T07:29:55.626Z,1007.00
2022-09-24T07:30:55.665Z,1006.99
2022-09-24T07:31:55.614Z,1007.02
2022-09-24T07:32:55.594Z,1007.03
2022-09-24T07:33:55.601Z,1006.95
2022-09-24T07:34:55.578Z,1007.01
2022-09-24T07:35:55.564Z,1007.00
2022-09-24T07:36:55.554Z,1007.01
2022-09-24T07:37:55.543Z,1007.02
2022-09-24T07:38:55.539Z,1007.03
2022-09-24T07:39:55.530Z,1007.04
2022-09-24T07:40:55.559Z,1007.05
2022-09-24T07:41:55.492Z,1007.05
2022-09-24T07:42:55.488Z,1007.06
2022-09-24T07:43:55.479Z,1007.08
2022-09-24T07:44:55.500Z,1007.07
2022-09-24T07:45:55.448Z,1007.06
2022-09-24T07:46:55.530Z,1007.04
2022-09-24T07:47:55.430Z,1007.03
2022-09-24T07:48:55.418Z,1007.03
2022-09-24T07:49:55.424Z,1007.01
2022-09-24T07:50:55.405Z,1007.00
2022-09-24T07:51:55.386Z,1007.01
2022-09-24T07:52:55.376Z,1007.01
2022-09-24T07:53:55.366Z,1007.02
2022-09-24T07:54:55.351Z,1007.01
2022-09-24T07:55:55.347Z,1007.01
2022-09-24T07:56:55.333Z,1007.00
2022-09-24T07:57:55.326Z,1007.02
2022-09-24T07:58:55.300Z,1007.05
2022-09-24T07:59:55.293Z,1007.04
2022-09-24T08:00:55.317Z,1007.08
2022-09-24T08:01:55.339Z,1007.06
2022-09-24T08:02:55.260Z,1007.08
2022-09-24T08:03:55.311Z,1007.13
2022-09-24T08:04:55.238Z,1007.07
2022-09-24T08:05:55.247Z,1007.05
2022-09-24T08:06:55.219Z,1007.04
2022-09-24T08:07:55.260Z,1007.08
2022-09-24T08:08:55.195Z,1007.05
2022-09-24T08:09:55.176Z,1007.05
2022-09-24T08:10:55.181Z,1007.10
2022-09-24T08:11:55.155Z,1007.09
2022-09-24T08:12:55.150Z,1007.11
2022-09-24T08:13:55.139Z,1007.04
2022-09-24T08:14:55.193Z,1007.05
2022-09-24T08:15:55.180Z,1007.06
2022-09-24T08:16:55.139Z,1007.09
2022-09-24T08:17:55.090Z,1007.04
2022-09-24T08:18:55.090Z,1007.07
2022-09-24T08:19:55.076Z,1007.07
2022-09-24T08:20:55.061Z,1007.06
2022-09-24T08:21:55.064Z,1007.07
2022-09-24T08:22:55.038Z,1007.11
2022-09-24T08:23:55.022Z,1007.12
2022-09-24T08:24:55.058Z,1007.10
2022-09-24T08:25:55.001Z,1007.11
2022-09-24T08:26:55.010Z,1007.09
2022-09-24T08:27:54.982Z,1007.10
2022-09-24T08:28:54.963Z,1007.13
2022-09-24T08:29:54.957Z,1007.14
2022-09-24T08:30:54.998Z,1007.16
2022-09-24T08:31:54.949Z,1007.14
2022-09-24T08:32:54.953Z,1007.12
2022-09-24T08:33:54.916Z,1007.09
2022-09-24T08:34:54.900Z,1007.12
2022-09-24T08:35:54.892Z,1007.07
2022-09-24T08:36:54.883Z,1007.07
2022-09-24T08:37:54.896Z,1007.06
2022-09-24T08:38:54.861Z,1007.10
2022-09-24T08:39:54.848Z,1007.07
2022-09-24T08:40:54.950Z,1007.05
2022-09-24T08:41:54.837Z,1007.06
2022-09-24T08:42:54.848Z,1007.07
2022-09-24T08:43:54.802Z,1007.03
2022-09-24T08:44:54.788Z,1007.04
2022-09-24T08:45:54.780Z,1007.05
2022-09-24T08:46:54.831Z,1007.04
2022-09-24T08:47:54.773Z,1007.06
2022-09-24T08:48:54.780Z,1007.08
2022-09-24T08:49:54.727Z,1007.01
2022-09-24T08:50:54.728Z,1007.05
2022-09-24T08:51:54.714Z,1007.03
2022-09-24T08:52:54.691Z,1007.09
2022-09-24T08:53:54.706Z,1007.05
2022-09-24T08:54:54.677Z,1007.09
2022-09-24T08:55:54.667Z,1007.08
2022-09-24T08:56:54.650Z,1007.08
2022-09-24T08:57:54.648Z,1007.09
2022-09-24T08:58:54.644Z,1007.07
2022-09-24T08:59:54.622Z,1007.08
2022-09-24T09:00:54.607Z,1007.06
2022-09-24T09:01:54.811Z,1007.07
2022-09-24T09:02:54.650Z,1007.09
2022-09-24T09:03:54.594Z,1007.08
2022-09-24T09:04:54.595Z,1007.08
2022-09-24T09:05:54.560Z,1007.06
2022-09-24T09:06:54.546Z,1007.09
2022-09-24T09:07:54.536Z,1007.08
2022-09-24T09:09:06.927Z,1007.09
2022-09-24T09:09:55.511Z,1007.08
2022-09-24T09:10:54.493Z,1007.15
2022-09-24T09:11:54.493Z,1007.14
2022-09-24T09:12:54.482Z,1007.13
2022-09-24T09:13:54.483Z,1007.12
2022-09-24T09:14:54.469Z,1007.13
2022-09-24T09:15:54.499Z,1007.14
2022-09-24T09:16:54.444Z,1007.09
2022-09-24T09:17:54.426Z,1007.09
2022-09-24T09:18:54.405Z,1007.14
2022-09-24T09:19:54.409Z,1007.17
2022-09-24T09:20:54.502Z,1007.18
2022-09-24T09:21:54.383Z,1007.12
2022-09-24T09:22:54.367Z,1007.15
2022-09-24T09:23:54.377Z,1007.15
2022-09-24T09:24:54.361Z,1007.16
2022-09-24T09:25:54.338Z,1007.16
2022-09-24T09:26:54.316Z,1007.16
2022-09-24T09:27:54.315Z,1007.13
2022-09-24T09:28:54.295Z,1007.17
2022-09-24T09:29:54.302Z,1007.16
2022-09-24T09:30:54.351Z,1007.18
2022-09-24T09:31:56.575Z,1007.17
2022-09-24T09:32:54.252Z,1007.16
2022-09-24T09:33:54.239Z,1007.17
2022-09-24T09:34:54.231Z,1007.17
2022-09-24T09:35:54.246Z,1007.13
2022-09-24T09:36:54.254Z,1007.16
2022-09-24T09:37:54.203Z,1007.15
2022-09-24T09:38:54.184Z,1007.11
2022-09-24T09:39:54.179Z,1007.13
2022-09-24T09:40:54.295Z,1007.09
2022-09-24T09:41:54.150Z,1007.14
2022-09-24T09:42:54.142Z,1007.12
2022-09-24T09:43:54.129Z,1007.10
2022-09-24T09:44:54.123Z,1007.13
2022-09-24T09:45:54.119Z,1007.12
2022-09-24T09:46:54.182Z,1007.10
2022-09-24T09:47:54.082Z,1007.11
2022-09-24T09:48:54.079Z,1007.09
2022-09-24T09:49:54.061Z,1007.11
2022-09-24T09:50:54.055Z,1007.12
2022-09-24T09:51:54.050Z,1007.11
2022-09-24T09:52:54.054Z,1007.04
2022-09-24T09:53:54.016Z,1007.12
2022-09-24T09:54:54.010Z,1007.10
2022-09-24T09:55:53.998Z,1007.13
2022-09-24T09:56:54.000Z,1007.15
2022-09-24T09:57:53.982Z,1007.11
2022-09-24T09:58:53.960Z,1007.11
2022-09-24T09:59:53.948Z,1007.14
2022-09-24T10:00:53.946Z,1007.12
2022-09-24T10:01:53.989Z,1007.15
2022-09-24T10:02:54.035Z,1007.14
2022-09-24T10:03:53.902Z,1007.16
2022-09-24T10:04:53.892Z,1007.14
2022-09-24T10:05:53.880Z,1007.16
2022-09-24T10:06:53.869Z,1007.15
2022-09-24T10:07:53.877Z,1007.14
2022-09-24T10:08:53.962Z,1007.15
2022-09-24T10:09:53.844Z,1007.12
2022-09-24T10:10:53.826Z,1007.11
2022-09-24T10:11:53.811Z,1007.10
2022-09-24T10:12:53.858Z,1007.15
2022-09-24T10:13:53.799Z,1007.15
2022-09-24T10:14:53.788Z,1007.12
2022-09-24T10:15:53.816Z,1007.09
2022-09-24T10:16:53.770Z,1007.13
2022-09-24T10:17:53.763Z,1007.12
2022-09-24T10:18:53.743Z,1007.08
2022-09-24T10:19:53.731Z,1007.14
2022-09-24T10:20:53.728Z,1007.13
2022-09-24T10:21:53.710Z,1007.17
2022-09-24T10:22:53.737Z,1007.14
2022-09-24T10:23:53.689Z,1007.12
2022-09-24T10:24:53.700Z,1007.12
2022-09-24T10:25:53.667Z,1007.13
2022-09-24T10:26:53.658Z,1007.12
2022-09-24T10:27:53.656Z,1007.10
2022-09-24T10:28:53.635Z,1007.06
2022-09-24T10:29:53.614Z,1007.04
2022-09-24T10:30:53.747Z,1007.05
2022-09-24T10:31:53.592Z,1007.06
2022-09-24T10:32:53.628Z,1007.04
2022-09-24T10:33:53.579Z,1007.06
2022-09-24T10:34:53.568Z,1007.04
2022-09-24T10:35:53.561Z,1007.02
2022-09-24T10:36:53.546Z,1007.03
2022-09-24T10:37:53.538Z,1007.00
2022-09-24T10:38:53.529Z,1007.00
2022-09-24T10:39:53.505Z,1006.98
2022-09-24T10:40:53.631Z,1006.98
2022-09-24T10:41:53.488Z,1006.97
2022-09-24T10:42:53.477Z,1007.00
2022-09-24T10:43:53.482Z,1006.96
2022-09-24T10:44:53.491Z,1007.00
2022-09-24T10:45:53.440Z,1006.95
2022-09-24T10:46:53.535Z,1007.03
2022-09-24T10:47:53.419Z,1007.04
2022-09-24T10:48:53.435Z,1007.05
2022-09-24T10:49:53.394Z,1007.04
2022-09-24T10:50:53.383Z,1007.02
2022-09-24T10:51:53.364Z,1007.02
2022-09-24T10:52:53.363Z,1007.02
2022-09-24T10:53:53.359Z,1007.02
2022-09-24T10:54:53.343Z,1007.02
2022-09-24T10:55:53.324Z,1007.03
2022-09-24T10:56:53.537Z,1007.06
2022-09-24T10:57:53.296Z,1007.08
2022-09-24T10:58:53.290Z,1007.04
2022-09-24T10:59:53.298Z,1007.07
2022-09-24T11:00:53.271Z,1007.02
2022-09-24T11:01:53.328Z,1007.02
2022-09-24T11:02:53.293Z,1007.01
2022-09-24T11:03:53.239Z,1006.95
2022-09-24T11:04:53.247Z,1006.97
2022-09-24T11:05:53.206Z,1006.99
2022-09-24T11:06:53.229Z,1006.99
2022-09-24T11:07:53.215Z,1006.96
2022-09-24T11:08:53.181Z,1006.97
2022-09-24T11:09:53.179Z,1006.95
2022-09-24T11:10:53.157Z,1006.95
2022-09-24T11:11:53.144Z,1006.95
2022-09-24T11:12:53.154Z,1006.95
2022-09-24T11:13:53.112Z,1006.93
2022-09-24T11:14:53.118Z,1006.99
2022-09-24T11:15:53.126Z,1006.94
2022-09-24T11:16:53.078Z,1006.92
2022-09-24T11:17:53.073Z,1006.91
2022-09-24T11:18:53.056Z,1006.91
2022-09-24T11:19:53.051Z,1006.92
2022-09-24T11:20:53.049Z,1006.92
2022-09-24T11:21:53.034Z,1006.93
2022-09-24T11:22:53.016Z,1006.92
2022-09-24T11:23:52.999Z,1006.89
2022-09-24T11:24:52.989Z,1006.89
2022-09-24T11:25:52.997Z,1006.90
2022-09-24T11:26:52.969Z,1006.90
2022-09-24T11:27:52.970Z,1006.88
2022-09-24T11:28:52.975Z,1006.87
2022-09-24T11:29:52.936Z,1006.86
2022-09-24T11:30:52.991Z,1006.80
2022-09-24T11:31:52.906Z,1006.82
2022-09-24T11:32:52.896Z,1006.83
2022-09-24T11:33:52.900Z,1006.84
2022-09-24T11:34:52.902Z,1006.83
2022-09-24T11:35:52.896Z,1006.82
2022-09-24T11:36:52.856Z,1006.82
2022-09-24T11:37:52.835Z,1006.82
2022-09-24T11:38:52.836Z,1006.81
2022-09-24T11:39:52.823Z,1006.78
2022-09-24T11:40:52.977Z,1006.77
2022-09-24T11:41:52.809Z,1006.77
2022-09-24T11:42:52.791Z,1006.77
2022-09-24T11:43:52.776Z,1006.76
2022-09-24T11:44:52.784Z,1006.76
2022-09-24T11:45:52.755Z,1006.77
2022-09-24T11:46:52.852Z,1006.77
2022-09-24T11:47:52.725Z,1006.76
2022-09-24T11:48:52.721Z,1006.75
2022-09-24T11:49:52.699Z,1006.75
2022-09-24T11:50:52.696Z,1006.78
2022-09-24T11:51:52.738Z,1006.79
2022-09-24T11:52:52.672Z,1006.77
2022-09-24T11:53:52.659Z,1006.78
2022-09-24T11:54:52.647Z,1006.80
2022-09-24T11:55:52.628Z,1006.80
2022-09-24T11:56:52.639Z,1006.81
2022-09-24T11:57:52.613Z,1006.78
2022-09-24T11:58:52.602Z,1006.79
2022-09-24T11:59:52.590Z,1006.80
2022-09-24T12:00:53.676Z,1006.76
2022-09-24T12:01:52.659Z,1006.77
2022-09-24T12:02:52.650Z,1006.76
2022-09-24T12:03:52.541Z,1006.74
2022-09-24T12:04:52.526Z,1006.72